Mondy, Russia
Current Conditions -  °F | °C
As of 9:00 PM on Thursday 27 Nov 2014 (Local Time) from UIII Reporting Station
Clear Clear  
Wind Chill:   Ceiling: Unl
Heat Index: 14°   Visibility: 6mi
Dew Point:   Wind: 9mph
Humidity: 67%   Direction: 90°E
Pressure: 29.59"   Gusts: NA
Location:  51.68°N, 100.98°E
Report Text: UIII 271300Z 09004MPS CAVOK M10/M15 Q1002 NOSIG RMK QFE710/094612810360
Loading
Personal Weather Stations






























Interactive Weather Map New forecast layout! Learn more

10-Day Weather Forecast

Advertisements
Track Severe Weather on mobile